Time;durP1;ratioP1;P1;durP2;ratioP2;P2;SDS_P1;SDS_P2;PMS_P1;PMS_P2;Temp;Humidity;BMP_temperature;BMP_pressure;BME280_temperature;BME280_humidity;BME280_pressure;Samples;Min_cycle;Max_cycle;Signal;HPM_P1;HPM_P2
2022/11/28 00:01:36;;;;;;;33.30;15.07;;;7.10;99.90;;;;;;5030891;28;20194;-63
2022/11/28 00:04:03;;;;;;;44.50;17.90;;;7.10;99.90;;;;;;5030745;28;20214;-64
2022/11/28 00:06:30;;;;;;;35.20;15.47;;;7.10;99.90;;;;;;5031141;28;20716;-64
2022/11/28 00:08:59;;;;;;;46.73;19.80;;;7.10;99.90;;;;;;5016811;28;20292;-64
2022/11/28 00:11:26;;;;;;;46.80;20.17;;;7.10;99.90;;;;;;5031192;28;20206;-64
2022/11/28 00:13:53;;;;;;;51.60;21.93;;;7.10;99.90;;;;;;5032346;28;20210;-63
2022/11/28 00:16:22;;;;;;;51.73;22.47;;;7.10;99.90;;;;;;5029993;28;20281;-63
2022/11/28 00:18:51;;;;;;;49.80;20.43;;;7.10;99.90;;;;;;5030219;28;20194;-63
2022/11/28 00:21:19;;;;;;;47.30;20.03;;;7.00;99.90;;;;;;5026859;28;20725;-63
2022/11/28 00:23:47;;;;;;;46.87;20.63;;;7.00;99.90;;;;;;5028853;28;20198;-63
2022/11/28 00:26:16;;;;;;;48.33;20.40;;;6.90;99.90;;;;;;5029775;28;20201;-64
2022/11/28 00:28:43;;;;;;;46.00;20.13;;;6.90;99.90;;;;;;5014667;28;20507;-64
2022/11/28 00:31:13;;;;;;;48.17;19.90;;;6.80;99.90;;;;;;5012011;28;20234;-64
2022/11/28 00:33:40;;;;;;;42.57;18.97;;;6.80;99.90;;;;;;5031709;28;20672;-63
2022/11/28 00:36:09;;;;;;;41.40;18.60;;;6.80;99.90;;;;;;5031284;28;20274;-61
2022/11/28 00:38:36;;;;;;;40.33;18.50;;;6.70;99.90;;;;;;5031851;28;20186;-63
2022/11/28 00:41:05;;;;;;;38.43;17.83;;;6.70;99.90;;;;;;5029659;28;20198;-63
2022/11/28 00:43:32;;;;;;;38.03;17.63;;;6.70;99.90;;;;;;5030952;28;20186;-63
2022/11/28 00:46:00;;;;;;;40.30;18.00;;;6.60;99.90;;;;;;5029799;28;20203;-63
2022/11/28 00:48:27;;;;;;;39.20;17.83;;;6.60;99.90;;;;;;5030854;28;20230;-63
2022/11/28 00:50:56;;;;;;;39.80;18.27;;;6.50;99.90;;;;;;5031126;28;20197;-63
2022/11/28 00:53:24;;;;;;;31.57;14.47;;;6.60;99.90;;;;;;5030843;28;20218;-63
2022/11/28 00:55:51;;;;;;;36.03;16.83;;;6.60;99.90;;;;;;5027736;28;20544;-63
2022/11/28 00:58:18;;;;;;;36.57;16.73;;;6.60;99.90;;;;;;5027304;28;20198;-63
2022/11/28 01:00:45;;;;;;;30.27;15.73;;;6.60;99.90;;;;;;5009270;28;20263;-63
2022/11/28 01:03:12;;;;;;;34.13;15.73;;;6.60;99.90;;;;;;5031501;28;20368;-63
2022/11/28 01:05:43;;;;;;;30.67;14.50;;;6.50;99.90;;;;;;5028365;28;20680;-63
2022/11/28 01:08:10;;;;;;;36.73;16.70;;;6.50;99.90;;;;;;5030603;28;20648;-64
2022/11/28 01:10:41;;;;;;;26.80;13.20;;;6.60;99.90;;;;;;5031105;28;20245;-63
2022/11/28 01:13:09;;;;;;;32.70;15.27;;;6.60;99.90;;;;;;5029828;28;20208;-63
2022/11/28 01:15:36;;;;;;;36.63;16.60;;;6.60;99.90;;;;;;5027890;28;20290;-63
2022/11/28 01:18:03;;;;;;;33.27;15.60;;;6.60;99.90;;;;;;5029484;28;20280;-63
2022/11/28 01:20:30;;;;;;;32.93;15.63;;;6.60;99.90;;;;;;5028487;28;20567;-63
2022/11/28 01:22:57;;;;;;;31.00;14.77;;;6.50;99.90;;;;;;5030550;28;20273;-63
2022/11/28 01:25:24;;;;;;;28.40;14.47;;;6.50;99.90;;;;;;5028788;28;20662;-64
2022/11/28 01:27:53;;;;;;;33.13;15.67;;;6.50;99.90;;;;;;5029069;28;20209;-63
2022/11/28 01:30:20;;;;;;;33.13;15.57;;;6.50;99.90;;;;;;5029886;28;20774;-64
2022/11/28 01:32:47;;;;;;;34.97;16.63;;;6.50;99.90;;;;;;5027450;28;20237;-63
2022/11/28 01:35:13;;;;;;;30.30;14.57;;;6.40;99.90;;;;;;5031065;28;20195;-64
2022/11/28 01:37:40;;;;;;;34.70;16.10;;;6.40;99.90;;;;;;5027950;28;20211;-63
2022/11/28 01:40:09;;;;;;;32.20;15.40;;;6.40;99.90;;;;;;5030591;28;20281;-64
2022/11/28 01:42:35;;;;;;;24.00;12.47;;;6.50;99.90;;;;;;5025717;28;20286;-63
2022/11/28 01:45:12;;;;;;;25.87;12.00;;;6.50;99.90;;;;;;5029596;28;20281;-63
2022/11/28 01:47:40;;;;;;;24.50;12.20;;;6.60;99.90;;;;;;5028673;28;20521;-63
2022/11/28 01:50:08;;;;;;;25.17;11.90;;;6.60;99.90;;;;;;5027065;28;20725;-64
2022/11/28 01:52:38;;;;;;;25.47;12.30;;;6.60;99.90;;;;;;5029694;28;20218;-63
2022/11/28 01:55:06;;;;;;;28.90;13.73;;;6.60;99.90;;;;;;5027934;28;20230;-63
2022/11/28 01:57:34;;;;;;;24.47;11.47;;;6.70;99.90;;;;;;5023896;28;20644;-63
2022/11/28 02:00:06;;;;;;;21.37;10.47;;;6.70;99.90;;;;;;5028710;28;20194;-63
2022/11/28 02:02:43;;;;;;;18.03;9.50;;;6.80;99.90;;;;;;5537954;22;20233;-60
2022/11/28 02:05:10;;;;;;;17.50;9.87;;;6.80;99.90;;;;;;5047954;28;20712;-60
2022/11/28 02:07:37;;;;;;;19.47;10.40;;;6.80;99.90;;;;;;5054915;28;20221;-60
2022/11/28 02:10:08;;;;;;;23.07;11.63;;;6.90;99.90;;;;;;5039906;28;20586;-60
2022/11/28 02:12:58;;;;;;;24.37;11.97;;;6.80;99.90;;;;;;5059094;28;20234;-60
2022/11/28 02:15:40;;;;;;;32.33;15.10;;;6.80;99.90;;;;;;5060471;28;20182;-60
2022/11/28 02:18:22;;;;;;;30.13;14.37;;;6.80;99.90;;;;;;5061574;28;20188;-60
2022/11/28 02:21:09;;;;;;;34.20;15.00;;;6.80;99.90;;;;;;5054087;28;20221;-60
2022/11/28 02:24:02;;;;;;;29.70;14.80;;;6.70;99.90;;;;;;5040365;28;20288;-60
2022/11/28 02:27:01;;;;;;;32.53;13.97;;;6.70;99.90;;;;;;5055920;28;20193;-60
2022/11/28 02:30:00;;;;;;;23.33;12.53;;;6.60;99.90;;;;;;5043828;28;20615;-60
2022/11/28 02:32:42;;;;;;;28.83;13.53;;;6.60;99.90;;;;;;5053637;28;20273;-60
2022/11/28 02:35:15;;;;;;;26.80;13.57;;;6.50;99.90;;;;;;5060943;28;20279;-60
2022/11/28 02:37:50;;;;;;;31.90;14.50;;;6.50;99.90;;;;;;5052861;28;20261;-60
2022/11/28 02:40:24;;;;;;;32.00;14.50;;;6.50;99.90;;;;;;5044203;28;20196;-60
2022/11/28 02:43:02;;;;;;;31.60;15.27;;;6.50;99.90;;;;;;5059215;28;20200;-60
2022/11/28 02:45:36;;;;;;;29.53;13.33;;;6.50;99.90;;;;;;5052670;28;20275;-60
2022/11/28 02:48:09;;;;;;;30.17;14.37;;;6.40;99.90;;;;;;5053089;28;20274;-60
2022/11/28 02:50:41;;;;;;;34.07;15.47;;;6.40;99.90;;;;;;5053060;28;20187;-60
2022/11/28 02:53:12;;;;;;;30.30;13.90;;;6.40;99.90;;;;;;5054054;28;20206;-60
2022/11/28 02:55:41;;;;;;;39.73;15.13;;;6.40;99.90;;;;;;5053883;28;20205;-60
2022/11/28 02:58:10;;;;;;;27.80;13.37;;;6.40;99.90;;;;;;5035394;28;20194;-60
2022/11/28 03:00:38;;;;;;;31.63;12.90;;;6.40;99.90;;;;;;5057694;28;20208;-60
2022/11/28 03:03:29;;;;;;;20.87;10.23;;;6.40;99.90;;;;;;5056098;28;20325;-60
2022/11/28 03:06:00;;;;;;;19.43;9.63;;;6.40;99.90;;;;;;5070485;28;20203;-60
2022/11/28 03:08:39;;;;;;;24.17;11.60;;;6.50;99.90;;;;;;5079688;28;20291;-60
2022/11/28 03:11:14;;;;;;;24.70;11.93;;;6.50;99.90;;;;;;5079033;28;20191;-60
2022/11/28 03:13:50;;;;;;;26.40;12.97;;;6.50;99.90;;;;;;5078909;28;20212;-60
2022/11/28 03:16:27;;;;;;;28.40;13.63;;;6.50;99.90;;;;;;5074347;28;20199;-60
2022/11/28 03:19:03;;;;;;;22.70;11.67;;;6.40;99.90;;;;;;5084769;28;20195;-60
2022/11/28 03:21:40;;;;;;;18.80;9.60;;;6.30;99.90;;;;;;5078776;28;20821;-60
2022/11/28 03:24:15;;;;;;;25.80;12.10;;;6.30;99.90;;;;;;5075041;28;20216;-60
2022/11/28 03:26:50;;;;;;;23.27;11.67;;;6.40;99.90;;;;;;5083942;28;20238;-60
2022/11/28 03:29:22;;;;;;;22.97;11.77;;;6.40;99.90;;;;;;5077825;28;20193;-60
2022/11/28 03:31:52;;;;;;;23.83;12.27;;;6.40;99.90;;;;;;5075384;28;20196;-60
2022/11/28 03:34:24;;;;;;;23.47;11.80;;;6.40;99.90;;;;;;5079737;28;20288;-60
2022/11/28 03:36:57;;;;;;;24.77;12.33;;;6.30;99.90;;;;;;5077541;28;20568;-60
2022/11/28 03:39:28;;;;;;;26.03;12.50;;;6.30;99.90;;;;;;5062323;28;20221;-60
2022/11/28 03:42:01;;;;;;;17.80;8.80;;;6.30;99.90;;;;;;5083548;28;20500;-60
2022/11/28 03:44:31;;;;;;;23.00;11.57;;;6.30;99.90;;;;;;5079989;28;20707;-60
2022/11/28 03:47:01;;;;;;;24.97;12.07;;;6.30;99.90;;;;;;5072346;28;20749;-60
2022/11/28 03:49:35;;;;;;;22.87;11.03;;;6.40;99.90;;;;;;5061757;28;20231;-59
2022/11/28 03:52:04;;;;;;;27.53;11.90;;;6.30;99.90;;;;;;5059834;28;20299;-59
2022/11/28 03:54:36;;;;;;;23.60;11.97;;;6.30;99.90;;;;;;5072615;28;20299;-60
2022/11/28 03:57:09;;;;;;;21.00;10.53;;;6.20;99.90;;;;;;5079752;28;20302;-59
2022/11/28 03:59:39;;;;;;;27.60;11.37;;;6.20;99.90;;;;;;5078346;28;20746;-59
2022/11/28 04:02:15;;;;;;;20.37;10.40;;;6.20;99.90;;;;;;5081806;28;20499;-59
2022/11/28 04:04:53;;;;;;;22.50;11.33;;;6.10;99.90;;;;;;5079668;28;20712;-59
2022/11/28 04:07:26;;;;;;;20.77;10.57;;;6.10;99.90;;;;;;5077570;28;20665;-59
2022/11/28 04:10:01;;;;;;;25.90;11.67;;;6.10;99.90;;;;;;5081814;28;20283;-60
2022/11/28 04:12:39;;;;;;;25.73;11.90;;;6.00;99.90;;;;;;5075060;28;20299;-60
2022/11/28 04:15:12;;;;;;;21.43;10.63;;;6.00;99.90;;;;;;5078646;28;20204;-60
2022/11/28 04:17:46;;;;;;;22.47;11.13;;;5.90;99.90;;;;;;5082312;28;20268;-60
2022/11/28 04:20:19;;;;;;;19.80;9.93;;;5.90;99.90;;;;;;5076893;28;20195;-59
2022/11/28 04:22:51;;;;;;;18.17;9.27;;;5.90;99.90;;;;;;5081928;28;20656;-60
2022/11/28 04:25:21;;;;;;;21.70;10.03;;;5.80;99.90;;;;;;5077534;28;20191;-60
2022/11/28 04:27:57;;;;;;;24.03;10.53;;;5.80;99.90;;;;;;5079359;28;20591;-60
2022/11/28 04:30:24;;;;;;;21.10;10.70;;;5.80;99.90;;;;;;5077213;28;20206;-60
2022/11/28 04:32:55;;;;;;;19.90;9.80;;;5.80;99.90;;;;;;5081641;28;20198;-59
2022/11/28 04:35:28;;;;;;;17.87;8.53;;;5.80;99.90;;;;;;5077416;28;20195;-59
2022/11/28 04:37:57;;;;;;;16.33;7.97;;;5.70;99.90;;;;;;5078285;28;20590;-60
2022/11/28 04:40:25;;;;;;;18.37;9.80;;;5.80;99.90;;;;;;5081928;28;20675;-60
2022/11/28 04:42:55;;;;;;;20.03;9.67;;;5.80;99.90;;;;;;5073586;28;20554;-60
2022/11/28 04:45:27;;;;;;;18.30;9.07;;;5.70;99.90;;;;;;5080217;28;20194;-60
2022/11/28 04:47:55;;;;;;;16.83;8.77;;;5.70;99.90;;;;;;5077393;28;20285;-60
2022/11/28 04:50:28;;;;;;;12.67;6.73;;;5.70;99.90;;;;;;5080783;28;20745;-60
2022/11/28 04:53:00;;;;;;;16.67;8.37;;;5.70;99.90;;;;;;5073838;28;20203;-60
2022/11/28 04:55:33;;;;;;;12.73;6.60;;;5.70;99.90;;;;;;5065333;28;20232;-60
2022/11/28 04:58:09;;;;;;;15.73;7.80;;;5.70;99.90;;;;;;5075929;28;20360;-61
2022/11/28 05:00:37;;;;;;;18.17;8.27;;;5.80;99.90;;;;;;5080907;28;20638;-60
2022/11/28 05:03:05;;;;;;;16.73;8.07;;;5.80;99.90;;;;;;5072746;28;20238;-60
2022/11/28 05:05:43;;;;;;;13.83;6.63;;;5.80;99.90;;;;;;5078201;28;20222;-60
2022/11/28 05:08:10;;;;;;;14.47;7.40;;;5.90;99.90;;;;;;5079579;28;20213;-60
2022/11/28 05:10:37;;;;;;;10.50;6.00;;;5.90;99.90;;;;;;5071439;28;20282;-60
2022/11/28 05:13:04;;;;;;;12.13;6.20;;;6.00;99.90;;;;;;5076478;28;20187;-60
2022/11/28 05:15:31;;;;;;;9.57;5.20;;;6.00;99.90;;;;;;5063468;28;20364;-60
2022/11/28 05:17:59;;;;;;;11.03;5.83;;;6.10;99.90;;;;;;5080827;28;20681;-60
2022/11/28 05:20:26;;;;;;;10.73;5.67;;;6.10;99.90;;;;;;5079563;28;20279;-60
2022/11/28 05:22:54;;;;;;;19.20;9.37;;;6.20;99.90;;;;;;5079846;28;20675;-60
2022/11/28 05:25:22;;;;;;;14.90;7.47;;;6.20;99.90;;;;;;5080582;28;20586;-60
2022/11/28 05:27:49;;;;;;;20.10;9.00;;;6.20;99.90;;;;;;5078663;28;20195;-60
2022/11/28 05:30:16;;;;;;;18.73;8.23;;;6.20;99.90;;;;;;5079147;28;20358;-60
2022/11/28 05:32:43;;;;;;;17.13;7.70;;;6.20;99.90;;;;;;5081355;28;20768;-60
2022/11/28 05:35:10;;;;;;;16.10;7.70;;;6.20;99.90;;;;;;5078995;28;20670;-60
2022/11/28 05:37:37;;;;;;;15.00;6.73;;;6.20;99.90;;;;;;5062165;28;20574;-60
2022/11/28 05:40:07;;;;;;;16.10;7.00;;;6.20;99.90;;;;;;5064335;28;20205;-60
2022/11/28 05:42:35;;;;;;;20.80;9.13;;;6.20;99.90;;;;;;5056786;28;20196;-60
2022/11/28 05:45:03;;;;;;;25.27;11.03;;;6.20;99.90;;;;;;5077493;28;20225;-60
2022/11/28 05:47:30;;;;;;;23.97;9.63;;;6.20;99.90;;;;;;5076888;28;20204;-60
2022/11/28 05:49:57;;;;;;;21.00;10.27;;;6.10;99.90;;;;;;5080079;28;20211;-59
2022/11/28 05:52:24;;;;;;;24.73;10.90;;;6.10;99.90;;;;;;5076215;28;20650;-60
2022/11/28 05:54:51;;;;;;;17.77;8.50;;;6.10;99.90;;;;;;5074207;28;20215;-60
2022/11/28 05:57:20;;;;;;;18.53;8.47;;;6.10;99.90;;;;;;5079813;28;20633;-59
2022/11/28 05:59:47;;;;;;;22.17;10.07;;;6.10;99.90;;;;;;5075244;28;20216;-59
2022/11/28 06:02:14;;;;;;;18.63;9.03;;;6.20;99.90;;;;;;5073169;28;20303;-60
2022/11/28 06:04:41;;;;;;;18.97;8.73;;;6.20;99.90;;;;;;5073351;28;20210;-60
2022/11/28 06:07:08;;;;;;;15.90;7.20;;;6.20;99.90;;;;;;5077231;28;20280;-60
2022/11/28 06:09:35;;;;;;;14.67;7.17;;;5.50;99.90;;;;;;5076018;28;20192;-60
2022/11/28 06:12:02;;;;;;;12.07;6.83;;;6.20;99.90;;;;;;5073392;28;20619;-60
2022/11/28 06:14:32;;;;;;;11.23;6.53;;;6.20;99.90;;;;;;5072712;28;20674;-60
2022/11/28 06:16:59;;;;;;;18.73;9.20;;;6.30;99.90;;;;;;5078701;28;20619;-60
2022/11/28 06:19:26;;;;;;;20.37;9.20;;;6.30;99.90;;;;;;5076633;28;20279;-59
2022/11/28 06:21:52;;;;;;;19.97;10.17;;;6.20;99.90;;;;;;5075217;28;20204;-60
2022/11/28 06:24:19;;;;;;;20.30;9.17;;;6.20;99.90;;;;;;5070705;28;20627;-60
2022/11/28 06:26:46;;;;;;;21.77;9.93;;;6.20;99.90;;;;;;5072811;28;20224;-60
2022/11/28 06:29:13;;;;;;;20.70;9.23;;;6.80;99.90;;;;;;5078315;28;20257;-60
2022/11/28 06:31:42;;;;;;;17.07;8.60;;;6.20;99.90;;;;;;5081678;28;20274;-60
2022/11/28 06:34:10;;;;;;;25.53;11.83;;;6.20;99.90;;;;;;5074031;28;20228;-60
2022/11/28 06:36:37;;;;;;;26.43;11.47;;;6.20;99.90;;;;;;5080203;28;20510;-60
2022/11/28 06:39:05;;;;;;;22.00;10.10;;;6.20;99.90;;;;;;5075825;28;20705;-60
2022/11/28 06:41:32;;;;;;;18.43;8.80;;;6.20;99.90;;;;;;5070974;28;20610;-60
2022/11/28 06:43:58;;;;;;;15.67;7.93;;;6.20;99.90;;;;;;5078630;28;20366;-60
2022/11/28 06:46:25;;;;;;;15.50;8.03;;;6.10;99.90;;;;;;5070584;28;20661;-60
2022/11/28 06:48:54;;;;;;;22.43;10.87;;;6.20;99.90;;;;;;5057964;28;20219;-60
2022/11/28 06:51:21;;;;;;;16.60;8.50;;;6.20;99.90;;;;;;5069845;28;20189;-60
2022/11/28 06:53:49;;;;;;;23.13;9.63;;;6.10;99.90;;;;;;5081245;28;20294;-61
2022/11/28 06:56:18;;;;;;;18.80;8.53;;;6.10;99.90;;;;;;5076821;28;20611;-60
2022/11/28 06:58:46;;;;;;;24.33;11.67;;;6.10;99.90;;;;;;5062497;28;20205;-61
2022/11/28 07:01:15;;;;;;;26.00;11.33;;;6.10;99.90;;;;;;5072807;28;20281;-60
2022/11/28 07:03:43;;;;;;;22.50;10.80;;;6.00;99.90;;;;;;5066962;28;20241;-60
2022/11/28 07:06:13;;;;;;;22.97;11.50;;;5.90;99.90;;;;;;5051043;28;20254;-60
2022/11/28 07:08:41;;;;;;;22.03;10.47;;;5.90;99.90;;;;;;5077507;28;21034;-61
2022/11/28 07:11:10;;;;;;;22.03;9.70;;;5.10;99.90;;;;;;5073763;28;20348;-61
2022/11/28 07:13:40;;;;;;;15.73;8.63;;;5.80;99.90;;;;;;5078622;28;20275;-61
2022/11/28 07:16:08;;;;;;;18.37;9.43;;;5.70;99.90;;;;;;5076242;28;20626;-61
2022/11/28 07:18:35;;;;;;;18.10;9.47;;;5.70;99.90;;;;;;5073350;28;20307;-60
2022/11/28 07:21:02;;;;;;;21.03;10.70;;;5.80;99.90;;;;;;5077000;28;20209;-60
2022/11/28 07:23:30;;;;;;;19.77;9.67;;;5.70;99.90;;;;;;5076133;28;20222;-60
2022/11/28 07:26:01;;;;;;;17.07;9.13;;;5.70;99.90;;;;;;5073994;28;20188;-60
2022/11/28 07:28:29;;;;;;;20.73;9.00;;;5.70;99.90;;;;;;5071154;28;20194;-60
2022/11/28 07:31:02;;;;;;;21.27;9.20;;;5.70;99.90;;;;;;5055154;28;20597;-60
2022/11/28 07:33:29;;;;;;;24.80;10.93;;;5.70;99.90;;;;;;5074106;28;20193;-61
2022/11/28 07:36:00;;;;;;;23.87;10.90;;;5.70;99.90;;;;;;5071115;28;20203;-60
2022/11/28 07:38:30;;;;;;;19.57;9.73;;;5.70;99.90;;;;;;5074909;28;20279;-60
2022/11/28 07:41:04;;;;;;;16.90;8.73;;;5.60;99.90;;;;;;5076377;28;20281;-60
2022/11/28 07:43:31;;;;;;;15.57;7.80;;;5.70;99.90;;;;;;5071604;28;20199;-60
2022/11/28 07:45:58;;;;;;;15.93;8.50;;;5.80;99.90;;;;;;5067988;28;20306;-60
2022/11/28 07:48:28;;;;;;;15.67;8.33;;;5.80;99.90;;;;;;5072094;28;20638;-61
2022/11/28 07:50:55;;;;;;;12.00;6.80;;;5.80;99.90;;;;;;5077346;28;20280;-60
2022/11/28 07:53:22;;;;;;;21.13;9.67;;;5.90;99.90;;;;;;5073245;28;20229;-61
2022/11/28 07:55:49;;;;;;;22.27;9.83;;;5.90;99.90;;;;;;5042862;28;20236;-61
2022/11/28 07:58:20;;;;;;;20.13;10.50;;;5.90;99.90;;;;;;5067765;28;20253;-61
2022/11/28 08:00:50;;;;;;;19.37;9.77;;;5.90;99.90;;;;;;5065598;28;20650;-61
2022/11/28 08:03:17;;;;;;;15.43;8.47;;;5.90;99.90;;;;;;5066867;28;20234;-60
2022/11/28 08:05:48;;;;;;;27.10;12.30;;;6.00;99.90;;;;;;5071766;28;20193;-60
2022/11/28 08:08:16;;;;;;;28.13;12.23;;;5.90;99.90;;;;;;5069542;28;20187;-60
2022/11/28 08:10:43;;;;;;;22.57;11.30;;;6.00;99.90;;;;;;5069632;28;20644;-61
2022/11/28 08:13:10;;;;;;;22.13;10.57;;;5.90;99.90;;;;;;5054105;28;20211;-60
2022/11/28 08:15:39;;;;;;;21.17;9.87;;;5.90;99.90;;;;;;5068864;28;20231;-60
2022/11/28 08:18:06;;;;;;;20.57;9.90;;;5.90;99.90;;;;;;5067785;28;20279;-60
2022/11/28 08:20:36;;;;;;;24.00;11.13;;;5.90;99.90;;;;;;5068326;28;20227;-60
2022/11/28 08:23:04;;;;;;;23.40;10.90;;;6.00;99.90;;;;;;5053219;28;20200;-61
2022/11/28 08:25:31;;;;;;;20.30;9.83;;;6.00;99.90;;;;;;5067845;28;20582;-61
2022/11/28 08:27:59;;;;;;;25.50;11.57;;;6.00;99.90;;;;;;5068152;28;20678;-61
2022/11/28 08:30:29;;;;;;;24.37;10.67;;;6.00;99.90;;;;;;5076355;28;21015;-60
2022/11/28 08:32:58;;;;;;;27.80;12.27;;;6.00;99.90;;;;;;5068288;28;20200;-60
2022/11/28 08:35:25;;;;;;;22.17;10.70;;;6.00;99.90;;;;;;5049648;28;20210;-61
2022/11/28 08:37:52;;;;;;;28.47;12.63;;;5.90;99.90;;;;;;5051283;28;20345;-60
2022/11/28 08:40:19;;;;;;;23.03;11.37;;;5.90;99.90;;;;;;5066791;28;20287;-60
2022/11/28 08:42:46;;;;;;;20.20;10.10;;;5.80;99.90;;;;;;5075948;28;20218;-60
2022/11/28 08:45:14;;;;;;;18.80;9.27;;;5.80;99.90;;;;;;5068888;28;20287;-60
2022/11/28 08:47:41;;;;;;;15.23;7.60;;;5.80;99.90;;;;;;5068612;28;20624;-61
2022/11/28 08:50:10;;;;;;;16.83;8.43;;;5.80;99.90;;;;;;5069186;28;20218;-60
2022/11/28 08:52:37;;;;;;;11.93;7.27;;;5.90;99.90;;;;;;5069665;28;20290;-61
2022/11/28 08:55:04;;;;;;;15.97;7.63;;;5.90;99.90;;;;;;5070572;28;20306;-61
2022/11/28 08:57:31;;;;;;;15.40;8.33;;;5.90;99.90;;;;;;5050362;28;20256;-61
2022/11/28 08:59:58;;;;;;;11.83;6.83;;;6.00;99.90;;;;;;5068291;28;20197;-61
2022/11/28 09:02:25;;;;;;;17.23;8.60;;;5.90;99.90;;;;;;5067405;28;20754;-60
2022/11/28 09:04:52;;;;;;;17.67;8.77;;;5.90;99.90;;;;;;5069336;28;20259;-60
2022/11/28 09:07:20;;;;;;;17.70;9.63;;;5.90;99.90;;;;;;5068654;28;20614;-60
2022/11/28 09:09:47;;;;;;;16.00;8.20;;;5.90;99.90;;;;;;5067698;28;20281;-60
2022/11/28 09:12:15;;;;;;;19.20;9.07;;;5.80;99.90;;;;;;5068089;28;20651;-60
2022/11/28 09:14:42;;;;;;;15.27;8.17;;;5.80;99.90;;;;;;5065772;28;20247;-60
2022/11/28 09:17:09;;;;;;;16.63;8.63;;;5.80;99.90;;;;;;5064484;28;20215;-60
2022/11/28 09:19:36;;;;;;;18.13;8.37;;;5.70;99.90;;;;;;5066769;28;20199;-60
2022/11/28 09:22:03;;;;;;;16.20;8.13;;;5.80;99.90;;;;;;5065076;28;20294;-60
2022/11/28 09:24:31;;;;;;;16.40;8.90;;;5.80;99.90;;;;;;5065461;28;20286;-61
2022/11/28 09:26:58;;;;;;;12.83;6.90;;;5.80;99.90;;;;;;5067822;28;20224;-61
2022/11/28 09:29:27;;;;;;;20.47;8.57;;;5.80;99.90;;;;;;5049907;28;20203;-60
2022/11/28 09:31:54;;;;;;;20.80;9.93;;;5.70;99.90;;;;;;5077817;28;20191;-61
2022/11/28 09:34:21;;;;;;;17.27;9.17;;;5.70;99.90;;;;;;5067385;28;20687;-61
2022/11/28 09:36:48;;;;;;;12.50;7.00;;;5.80;99.90;;;;;;5067435;28;20201;-60
2022/11/28 09:39:16;;;;;;;17.50;8.37;;;5.70;99.90;;;;;;5068235;28;20267;-61
2022/11/28 09:41:54;;;;;;;15.03;8.00;;;5.80;99.90;;;;;;5067858;28;20227;-60
2022/11/28 09:44:24;;;;;;;13.43;7.47;;;5.80;99.90;;;;;;5066829;28;20257;-61
2022/11/28 09:46:55;;;;;;;18.20;9.40;;;5.70;99.90;;;;;;5067052;28;20307;-61
2022/11/28 09:49:30;;;;;;;12.40;7.43;;;5.80;99.90;;;;;;5066338;28;20208;-61
2022/11/28 09:52:02;;;;;;;18.27;8.77;;;5.70;99.90;;;;;;5066924;28;20223;-61
2022/11/28 09:54:37;;;;;;;17.07;8.67;;;5.80;99.90;;;;;;5068598;28;20194;-61
2022/11/28 09:57:12;;;;;;;16.97;9.30;;;5.80;99.90;;;;;;5066929;28;20260;-61
2022/11/28 09:59:39;;;;;;;19.67;8.60;;;5.80;99.90;;;;;;5068056;28;20201;-60
2022/11/28 10:02:19;;;;;;;14.80;7.77;;;5.80;99.90;;;;;;5064192;28;20232;-61
2022/11/28 10:04:54;;;;;;;13.83;6.87;;;5.80;99.90;;;;;;5063507;28;20295;-61
2022/11/28 10:07:29;;;;;;;11.30;5.70;;;5.80;99.90;;;;;;5045718;28;20209;-61
2022/11/28 10:10:08;;;;;;;14.37;7.30;;;5.80;99.90;;;;;;5066614;28;20199;-61
2022/11/28 10:12:44;;;;;;;20.03;9.70;;;5.90;99.90;;;;;;5069857;28;20200;-60
2022/11/28 10:15:31;;;;;;;15.33;7.83;;;5.90;99.90;;;;;;5067334;28;20299;-61
2022/11/28 10:18:09;;;;;;;17.30;8.73;;;5.90;99.90;;;;;;5065421;28;20181;-61
2022/11/28 10:20:39;;;;;;;14.27;8.30;;;5.80;99.90;;;;;;5065756;28;20279;-61
2022/11/28 10:23:13;;;;;;;12.70;7.17;;;5.90;99.90;;;;;;5064266;28;20242;-61
2022/11/28 10:25:43;;;;;;;13.37;6.77;;;5.80;99.90;;;;;;5067096;28;20190;-61
2022/11/28 10:28:16;;;;;;;16.60;8.23;;;5.80;99.90;;;;;;5065353;28;20258;-61
2022/11/28 10:30:47;;;;;;;12.90;7.43;;;5.80;99.90;;;;;;5067221;28;20617;-60
2022/11/28 10:33:22;;;;;;;13.87;7.03;;;5.90;99.90;;;;;;5048244;28;20659;-61
2022/11/28 10:35:54;;;;;;;17.03;8.40;;;5.80;99.90;;;;;;5065862;28;20222;-61
2022/11/28 10:38:26;;;;;;;20.70;10.23;;;5.80;99.90;;;;;;5066505;28;20191;-60
2022/11/28 10:41:00;;;;;;;17.73;9.03;;;5.80;99.90;;;;;;5066394;28;20281;-61
2022/11/28 10:43:39;;;;;;;19.97;9.53;;;5.70;99.90;;;;;;5064973;28;20186;-61
2022/11/28 10:46:21;;;;;;;21.43;8.63;;;5.70;99.90;;;;;;5066209;28;20247;-61
2022/11/28 10:48:56;;;;;;;22.17;10.17;;;5.70;99.90;;;;;;5047366;28;20203;-61
2022/11/28 10:51:34;;;;;;;16.17;8.50;;;5.70;99.90;;;;;;5063939;28;20202;-60
2022/11/28 10:54:18;;;;;;;17.23;8.63;;;5.70;99.90;;;;;;5075513;28;20216;-61
2022/11/28 10:56:57;;;;;;;18.33;8.77;;;5.70;99.90;;;;;;5062956;28;20680;-61
2022/11/28 10:59:37;;;;;;;11.00;6.50;;;5.70;99.90;;;;;;5072636;28;20304;-61
2022/11/28 11:02:19;;;;;;;19.70;9.30;;;5.80;99.90;;;;;;5065176;28;20320;-60
2022/11/28 11:04:47;;;;;;;18.03;9.70;;;5.80;99.90;;;;;;5066596;28;20294;-61
2022/11/28 11:07:17;;;;;;;19.90;10.17;;;5.80;99.90;;;;;;5065679;28;20195;-61
2022/11/28 11:09:45;;;;;;;23.93;11.27;;;5.80;99.90;;;;;;5066458;28;20783;-61
2022/11/28 11:12:19;;;;;;;25.90;11.10;;;5.80;99.90;;;;;;5073468;28;20732;-61
2022/11/28 11:14:47;;;;;;;19.37;9.37;;;5.80;99.90;;;;;;5066799;28;20285;-61
2022/11/28 11:17:26;;;;;;;17.70;9.07;;;5.70;99.90;;;;;;5065563;28;20274;-61
2022/11/28 11:19:53;;;;;;;17.60;9.73;;;5.70;99.90;;;;;;5045947;28;20291;-61
2022/11/28 11:22:23;;;;;;;20.17;9.50;;;5.70;99.90;;;;;;5065682;28;20192;-61
2022/11/28 11:25:13;;;;;;;20.60;9.93;;;5.70;99.90;;;;;;5065241;28;20205;-61
2022/11/28 11:27:48;;;;;;;22.17;10.47;;;5.70;99.90;;;;;;5064712;28;20340;-61
2022/11/28 11:30:26;;;;;;;19.73;9.53;;;5.70;99.90;;;;;;5046859;28;20293;-60
2022/11/28 11:32:54;;;;;;;19.40;9.43;;;5.80;99.90;;;;;;5063427;28;20724;-60
2022/11/28 11:35:24;;;;;;;14.03;7.83;;;5.80;99.90;;;;;;5066098;28;20263;-60
2022/11/28 11:37:51;;;;;;;12.83;8.07;;;5.80;99.90;;;;;;5067697;28;20268;-61
2022/11/28 11:40:25;;;;;;;18.80;8.47;;;5.80;99.90;;;;;;5070606;28;20275;-61
2022/11/28 11:42:55;;;;;;;15.83;7.97;;;5.90;99.90;;;;;;5066173;28;20274;-60
2022/11/28 11:45:32;;;;;;;19.47;9.73;;;5.90;99.90;;;;;;5068665;28;20206;-60
2022/11/28 11:48:00;;;;;;;14.87;8.20;;;6.00;99.90;;;;;;5069008;28;20265;-60
2022/11/28 11:50:29;;;;;;;27.77;11.70;;;6.00;99.90;;;;;;5050754;28;20207;-60
2022/11/28 11:53:07;;;;;;;26.53;12.13;;;6.00;99.90;;;;;;5051327;28;20200;-60
2022/11/28 11:55:48;;;;;;;21.57;10.77;;;6.00;99.90;;;;;;5079398;28;20291;-60
2022/11/28 11:58:20;;;;;;;22.87;11.37;;;6.00;99.90;;;;;;5070002;28;20225;-60
2022/11/28 12:00:48;;;;;;;29.60;12.83;;;6.00;99.90;;;;;;5067997;28;20274;-61
2022/11/28 12:03:23;;;;;;;24.20;11.53;;;6.00;99.90;;;;;;5068761;28;20314;-61
2022/11/28 12:05:54;;;;;;;24.30;11.40;;;6.00;99.90;;;;;;5069367;28;20268;-60
2022/11/28 12:08:30;;;;;;;19.77;9.17;;;5.90;99.90;;;;;;5067293;28;20303;-61
2022/11/28 12:11:12;;;;;;;23.77;11.60;;;5.90;99.90;;;;;;5069353;28;20206;-61
2022/11/28 12:13:39;;;;;;;23.77;11.17;;;6.00;99.90;;;;;;5068328;28;20198;-61
2022/11/28 12:16:21;;;;;;;20.53;10.13;;;6.00;99.90;;;;;;5066216;28;20212;-61
2022/11/28 12:18:59;;;;;;;16.83;8.63;;;6.00;99.90;;;;;;5072921;28;20199;-61
2022/11/28 12:21:35;;;;;;;14.43;8.03;;;6.00;99.90;;;;;;5067401;28;20230;-61
2022/11/28 12:24:09;;;;;;;15.70;8.30;;;6.00;99.90;;;;;;5068700;28;20194;-61
2022/11/28 12:26:44;;;;;;;18.43;8.17;;;6.10;99.90;;;;;;5068979;28;20195;-60
2022/11/28 12:29:39;;;;;;;17.63;8.53;;;6.00;99.90;;;;;;5069514;28;20195;-60
2022/11/28 12:32:21;;;;;;;19.43;9.40;;;6.10;99.90;;;;;;5067205;28;20294;-60
2022/11/28 12:35:02;;;;;;;16.57;8.37;;;6.00;99.90;;;;;;5066920;28;20284;-60
2022/11/28 12:37:44;;;;;;;22.30;10.00;;;6.10;99.90;;;;;;5067368;28;20232;-60
2022/11/28 12:40:19;;;;;;;24.87;11.13;;;6.10;99.90;;;;;;5065816;28;20292;-60
2022/11/28 12:43:02;;;;;;;27.13;11.07;;;6.20;99.90;;;;;;5064793;28;20303;-60
2022/11/28 12:45:40;;;;;;;20.17;9.80;;;6.10;99.90;;;;;;5069081;28;20223;-60
2022/11/28 12:48:17;;;;;;;19.07;9.17;;;6.10;99.90;;;;;;5048419;28;20655;-60
2022/11/28 12:50:47;;;;;;;17.20;8.73;;;6.10;99.90;;;;;;5067247;28;20214;-60
2022/11/28 12:53:40;;;;;;;19.43;9.83;;;6.10;99.90;;;;;;5050578;28;20199;-60
2022/11/28 12:56:21;;;;;;;23.87;10.77;;;6.20;99.90;;;;;;5064285;28;20218;-60
2022/11/28 12:58:55;;;;;;;26.40;11.50;;;6.20;99.90;;;;;;5067403;28;20274;-60
2022/11/28 13:01:41;;;;;;;30.47;14.27;;;6.20;99.90;;;;;;5047743;28;20211;-60
2022/11/28 13:04:24;;;;;;;33.17;14.13;;;6.20;99.90;;;;;;5067899;28;20267;-60